createdAt,value
2016-12-24T00:00:54.161Z,965.94
2016-12-24T00:01:54.077Z,965.94
2016-12-24T00:02:54.091Z,965.91
2016-12-24T00:03:54.106Z,965.89
2016-12-24T00:04:54.121Z,965.87
2016-12-24T00:05:54.136Z,965.85
2016-12-24T00:06:54.151Z,965.83
2016-12-24T00:07:54.171Z,965.83
2016-12-24T00:08:54.198Z,965.85
2016-12-24T00:09:54.195Z,965.81
2016-12-24T00:10:54.312Z,965.84
2016-12-24T00:11:54.225Z,965.83
2016-12-24T00:12:54.240Z,965.81
2016-12-24T00:13:54.255Z,965.76
2016-12-24T00:14:54.270Z,965.77
2016-12-24T00:15:54.285Z,965.79
2016-12-24T00:16:54.298Z,965.75
2016-12-24T00:17:54.314Z,965.8
2016-12-24T00:18:54.328Z,965.77
2016-12-24T00:19:54.344Z,965.79
2016-12-24T00:20:54.358Z,965.76
2016-12-24T00:21:54.375Z,965.75
2016-12-24T00:22:54.390Z,965.75
2016-12-24T00:23:54.422Z,965.72
2016-12-24T00:24:54.418Z,965.74
2016-12-24T00:25:54.546Z,965.74
2016-12-24T00:26:54.449Z,965.77
2016-12-24T00:27:54.463Z,965.77
2016-12-24T00:28:54.478Z,965.84
2016-12-24T00:29:54.493Z,965.91
2016-12-24T00:30:54.508Z,965.94
2016-12-24T00:31:54.522Z,965.93
2016-12-24T00:32:54.539Z,965.91
2016-12-24T00:33:54.553Z,965.9
2016-12-24T00:34:54.568Z,965.84
2016-12-24T00:35:54.682Z,965.85
2016-12-24T00:36:54.597Z,965.84
2016-12-24T00:37:54.613Z,965.88
2016-12-24T00:38:54.626Z,965.86
2016-12-24T00:39:54.642Z,965.87
2016-12-24T00:40:54.657Z,965.83
2016-12-24T00:41:54.673Z,965.84
2016-12-24T00:42:54.687Z,965.85
2016-12-24T00:43:54.701Z,965.86
2016-12-24T00:44:54.720Z,965.83
2016-12-24T00:45:54.832Z,965.79
2016-12-24T00:46:54.747Z,965.76
2016-12-24T00:47:54.762Z,965.75
2016-12-24T00:48:54.775Z,965.72
2016-12-24T00:49:54.789Z,965.71
2016-12-24T00:50:54.806Z,965.76
2016-12-24T00:51:54.821Z,965.81
2016-12-24T00:52:54.837Z,965.82
2016-12-24T00:53:54.851Z,965.8
2016-12-24T00:54:54.865Z,965.72
2016-12-24T00:55:54.880Z,965.71
2016-12-24T00:56:54.896Z,965.82
2016-12-24T00:57:54.910Z,965.83
2016-12-24T00:58:54.925Z,965.86
2016-12-24T00:59:54.961Z,965.83
2016-12-24T01:00:55.055Z,965.76
2016-12-24T01:01:54.970Z,965.86
2016-12-24T01:02:54.983Z,965.85
2016-12-24T01:03:55.003Z,965.81
2016-12-24T01:04:55.014Z,965.8
2016-12-24T01:05:55.029Z,965.85
2016-12-24T01:06:55.044Z,965.86
2016-12-24T01:07:55.059Z,965.84
2016-12-24T01:08:55.074Z,965.76
2016-12-24T01:09:55.089Z,965.74
2016-12-24T01:10:55.104Z,965.7
2016-12-24T01:11:55.121Z,965.66
2016-12-24T01:12:55.135Z,965.76
2016-12-24T01:13:55.149Z,965.72
2016-12-24T01:14:55.185Z,965.68
2016-12-24T01:15:55.277Z,965.68
2016-12-24T01:16:55.193Z,965.64
2016-12-24T01:17:55.208Z,965.63
2016-12-24T01:18:55.223Z,965.63
2016-12-24T01:19:55.238Z,965.59
2016-12-24T01:20:55.254Z,965.55
2016-12-24T01:21:55.268Z,965.48
2016-12-24T01:22:55.282Z,965.52
2016-12-24T01:23:55.299Z,965.47
2016-12-24T01:24:55.313Z,965.48
2016-12-24T01:25:55.328Z,965.45
2016-12-24T01:26:55.340Z,965.39
2016-12-24T01:27:55.357Z,965.44
2016-12-24T01:28:55.375Z,965.42
2016-12-24T01:29:55.385Z,965.39
2016-12-24T01:30:55.401Z,965.38
2016-12-24T01:31:55.424Z,965.33
2016-12-24T01:32:55.446Z,965.39
2016-12-24T01:33:55.446Z,965.44
2016-12-24T01:34:55.512Z,965.46
2016-12-24T01:35:55.542Z,965.44
2016-12-24T01:36:55.526Z,965.45
2016-12-24T01:37:55.505Z,965.44
2016-12-24T01:38:55.520Z,965.47
2016-12-24T01:39:55.554Z,965.51
2016-12-24T01:40:55.550Z,965.56
2016-12-24T01:41:55.565Z,965.6
2016-12-24T01:42:55.580Z,965.64
2016-12-24T01:43:55.599Z,965.62
2016-12-24T01:44:55.609Z,965.57
2016-12-24T01:45:55.624Z,965.61
2016-12-24T01:46:55.639Z,965.62
2016-12-24T01:47:55.654Z,965.67
2016-12-24T01:48:55.668Z,965.61
2016-12-24T01:49:55.831Z,965.54
2016-12-24T01:50:55.699Z,965.56
2016-12-24T01:51:55.713Z,965.63
2016-12-24T01:52:55.728Z,965.64
2016-12-24T01:53:55.743Z,965.62
2016-12-24T01:54:55.758Z,965.61
2016-12-24T01:55:55.774Z,965.63
2016-12-24T01:56:55.788Z,965.67
2016-12-24T01:57:55.807Z,965.61
2016-12-24T01:58:55.819Z,965.66
2016-12-24T01:59:55.832Z,965.72
2016-12-24T02:00:55.848Z,965.72
2016-12-24T02:01:55.862Z,965.71
2016-12-24T02:02:55.876Z,965.71
2016-12-24T02:03:55.891Z,965.76
2016-12-24T02:04:55.906Z,965.75
2016-12-24T02:05:55.922Z,965.79
2016-12-24T02:06:55.935Z,965.77
2016-12-24T02:07:55.951Z,965.76
2016-12-24T02:08:55.966Z,965.77
2016-12-24T02:09:55.982Z,965.71
2016-12-24T02:10:55.995Z,965.71
2016-12-24T02:11:56.011Z,965.7
2016-12-24T02:12:56.031Z,965.66
2016-12-24T02:13:56.041Z,965.68
2016-12-24T02:14:56.056Z,965.67
2016-12-24T02:15:56.071Z,965.65
2016-12-24T02:16:56.086Z,965.69
2016-12-24T02:17:56.100Z,965.74
2016-12-24T02:18:56.116Z,965.84
2016-12-24T02:19:56.135Z,965.87
2016-12-24T02:20:56.147Z,965.86
2016-12-24T02:21:56.161Z,965.91
2016-12-24T02:22:56.176Z,965.88
2016-12-24T02:23:56.192Z,965.93
2016-12-24T02:24:56.205Z,965.93
2016-12-24T02:25:56.221Z,965.92
2016-12-24T02:26:56.236Z,965.86
2016-12-24T02:27:56.252Z,965.92
2016-12-24T02:28:56.267Z,965.93
2016-12-24T02:29:56.282Z,965.92
2016-12-24T02:30:56.297Z,965.92
2016-12-24T02:31:56.314Z,965.97
2016-12-24T02:32:56.326Z,965.98
2016-12-24T02:33:56.343Z,965.99
2016-12-24T02:34:56.358Z,965.94
2016-12-24T02:35:56.373Z,965.88
2016-12-24T02:36:56.387Z,965.86
2016-12-24T02:37:56.402Z,965.92
2016-12-24T02:38:56.418Z,965.95
2016-12-24T02:39:56.431Z,965.99
2016-12-24T02:40:56.449Z,966.04
2016-12-24T02:41:56.483Z,966.04
2016-12-24T02:42:56.478Z,966.06
2016-12-24T02:43:56.495Z,966.05
2016-12-24T02:44:56.510Z,966.09
2016-12-24T02:45:56.523Z,966.08
2016-12-24T02:46:56.539Z,966.07
2016-12-24T02:47:56.556Z,966.09
2016-12-24T02:48:56.569Z,966.04
2016-12-24T02:49:56.586Z,966.02
2016-12-24T02:50:56.600Z,965.99
2016-12-24T02:51:56.616Z,965.99
2016-12-24T02:52:56.632Z,966.05
2016-12-24T02:53:56.645Z,966.02
2016-12-24T02:54:56.661Z,966.02
2016-12-24T02:55:56.676Z,965.98
2016-12-24T02:56:56.707Z,965.96
2016-12-24T02:57:56.706Z,966.01
2016-12-24T02:58:56.722Z,966
2016-12-24T02:59:56.768Z,966.04
2016-12-24T03:00:56.753Z,966
2016-12-24T03:01:56.767Z,966.02
2016-12-24T03:02:56.783Z,965.98
2016-12-24T03:03:56.802Z,965.94
2016-12-24T03:04:56.813Z,965.91
2016-12-24T03:05:56.829Z,965.93
2016-12-24T03:06:56.844Z,965.91
2016-12-24T03:07:56.860Z,965.93
2016-12-24T03:08:56.874Z,965.92
2016-12-24T03:09:56.889Z,965.84
2016-12-24T03:10:56.912Z,965.85
2016-12-24T03:11:56.919Z,965.88
2016-12-24T03:12:56.934Z,965.82
2016-12-24T03:13:56.951Z,965.79
2016-12-24T03:14:56.966Z,965.78
2016-12-24T03:15:56.980Z,965.79
2016-12-24T03:16:56.996Z,965.77
2016-12-24T03:17:57.014Z,965.74
2016-12-24T03:18:57.027Z,965.72
2016-12-24T03:19:57.042Z,965.76
2016-12-24T03:20:57.057Z,965.69
2016-12-24T03:21:57.072Z,965.73
2016-12-24T03:22:57.089Z,965.69
2016-12-24T03:23:57.103Z,965.7
2016-12-24T03:24:57.121Z,965.71
2016-12-24T03:25:57.134Z,965.72
2016-12-24T03:26:57.148Z,965.71
2016-12-24T03:27:57.164Z,965.74
2016-12-24T03:28:57.180Z,965.75
2016-12-24T03:29:57.196Z,965.72
2016-12-24T03:30:57.210Z,965.71
2016-12-24T03:31:57.224Z,965.77
2016-12-24T03:32:57.245Z,965.8
2016-12-24T03:33:57.256Z,965.78
2016-12-24T03:34:57.272Z,965.74
2016-12-24T03:35:57.287Z,965.76
2016-12-24T03:36:57.302Z,965.75
2016-12-24T03:37:57.317Z,965.75
2016-12-24T03:38:57.334Z,965.76
2016-12-24T03:39:57.349Z,965.73
2016-12-24T03:40:57.364Z,965.68
2016-12-24T03:41:57.377Z,965.7
2016-12-24T03:42:57.393Z,965.72
2016-12-24T03:43:57.410Z,965.77
2016-12-24T03:44:57.424Z,965.72
2016-12-24T03:45:57.439Z,965.71
2016-12-24T03:46:57.455Z,965.74
2016-12-24T03:47:57.470Z,965.72
2016-12-24T03:48:57.485Z,965.69
2016-12-24T03:49:57.500Z,965.66
2016-12-24T03:50:57.516Z,965.65
2016-12-24T03:51:57.531Z,965.64
2016-12-24T03:52:57.544Z,965.64
2016-12-24T03:53:57.562Z,965.59
2016-12-24T03:54:57.593Z,965.62
2016-12-24T03:55:57.594Z,965.6
2016-12-24T03:56:57.607Z,965.59
2016-12-24T03:57:57.623Z,965.57
2016-12-24T03:58:57.640Z,965.53
2016-12-24T03:59:57.653Z,965.56
2016-12-24T04:00:57.668Z,965.57
2016-12-24T04:01:57.683Z,965.54
2016-12-24T04:02:57.701Z,965.48
2016-12-24T04:03:57.715Z,965.48
2016-12-24T04:04:57.728Z,965.5
2016-12-24T04:05:57.745Z,965.48
2016-12-24T04:06:57.760Z,965.49
2016-12-24T04:07:57.774Z,965.48
2016-12-24T04:08:57.791Z,965.5
2016-12-24T04:09:57.818Z,965.46
2016-12-24T04:10:57.821Z,965.49
2016-12-24T04:11:57.836Z,965.49
2016-12-24T04:12:57.852Z,965.45
2016-12-24T04:13:57.867Z,965.48
2016-12-24T04:14:57.881Z,965.44
2016-12-24T04:15:57.897Z,965.46
2016-12-24T04:16:57.912Z,965.5
2016-12-24T04:17:57.928Z,965.57
2016-12-24T04:18:57.943Z,965.55
2016-12-24T04:19:57.958Z,965.57
2016-12-24T04:20:57.974Z,965.63
2016-12-24T04:21:57.989Z,965.58
2016-12-24T04:22:58.005Z,965.65
2016-12-24T04:23:58.022Z,965.62
2016-12-24T04:24:58.035Z,965.7
2016-12-24T04:25:58.050Z,965.71
2016-12-24T04:26:58.065Z,965.68
2016-12-24T04:27:58.080Z,965.67
2016-12-24T04:28:58.096Z,965.66
2016-12-24T04:29:58.111Z,965.67
2016-12-24T04:30:58.126Z,965.66
2016-12-24T04:31:58.143Z,965.65
2016-12-24T04:32:58.158Z,965.6
2016-12-24T04:33:58.171Z,965.61
2016-12-24T04:34:58.187Z,965.6
2016-12-24T04:35:58.202Z,965.62
2016-12-24T04:36:58.217Z,965.58
2016-12-24T04:37:58.232Z,965.56
2016-12-24T04:38:58.249Z,965.56
2016-12-24T04:39:58.262Z,965.55
2016-12-24T04:40:58.276Z,965.54
2016-12-24T04:41:58.294Z,965.51
2016-12-24T04:42:58.310Z,965.54
2016-12-24T04:43:58.324Z,965.5
2016-12-24T04:44:58.339Z,965.49
2016-12-24T04:45:58.358Z,965.47
2016-12-24T04:46:58.370Z,965.43
2016-12-24T04:47:58.385Z,965.41
2016-12-24T04:48:58.400Z,965.37
2016-12-24T04:49:58.415Z,965.34
2016-12-24T04:50:58.430Z,965.36
2016-12-24T04:51:58.445Z,965.34
2016-12-24T04:52:58.461Z,965.42
2016-12-24T04:53:58.476Z,965.42
2016-12-24T04:54:58.491Z,965.44
2016-12-24T04:55:58.508Z,965.42
2016-12-24T04:56:58.522Z,965.42
2016-12-24T04:57:58.537Z,965.44
2016-12-24T04:58:58.552Z,965.44
2016-12-24T04:59:58.568Z,965.4
2016-12-24T05:00:58.584Z,965.33
2016-12-24T05:01:58.597Z,965.34
2016-12-24T05:02:58.612Z,965.34
2016-12-24T05:03:58.628Z,965.37
2016-12-24T05:04:58.644Z,965.35
2016-12-24T05:05:58.659Z,965.3
2016-12-24T05:06:58.674Z,965.31
2016-12-24T05:07:58.705Z,965.3
2016-12-24T05:08:58.705Z,965.35
2016-12-24T05:09:58.719Z,965.32
2016-12-24T05:10:58.736Z,965.31
2016-12-24T05:11:58.751Z,965.29
2016-12-24T05:12:58.765Z,965.32
2016-12-24T05:13:58.781Z,965.32
2016-12-24T05:14:58.797Z,965.29
2016-12-24T05:15:58.814Z,965.22
2016-12-24T05:16:58.826Z,965.13
2016-12-24T05:17:58.842Z,965.16
2016-12-24T05:18:58.859Z,965.21
2016-12-24T05:19:58.874Z,965.2
2016-12-24T05:20:58.888Z,965.22
2016-12-24T05:21:58.904Z,965.23
2016-12-24T05:22:58.930Z,965.25
2016-12-24T05:23:58.934Z,965.2
2016-12-24T05:24:58.950Z,965.23
2016-12-24T05:25:58.967Z,965.23
2016-12-24T05:26:58.983Z,965.18
2016-12-24T05:27:58.996Z,965.22
2016-12-24T05:28:59.011Z,965.22
2016-12-24T05:29:59.028Z,965.23
2016-12-24T05:30:59.043Z,965.22
2016-12-24T05:31:59.058Z,965.26
2016-12-24T05:32:59.073Z,965.25
2016-12-24T05:33:59.089Z,965.26
2016-12-24T05:34:59.104Z,965.29
2016-12-24T05:35:59.120Z,965.34
2016-12-24T05:36:59.140Z,965.35
2016-12-24T05:37:59.151Z,965.32
2016-12-24T05:38:59.166Z,965.32
2016-12-24T05:39:59.181Z,965.34
2016-12-24T05:40:59.197Z,965.38
2016-12-24T05:41:59.212Z,965.4
2016-12-24T05:42:59.228Z,965.43
2016-12-24T05:43:59.243Z,965.44
2016-12-24T05:44:59.281Z,965.4
2016-12-24T05:45:59.275Z,965.4
2016-12-24T05:46:59.290Z,965.39
2016-12-24T05:47:59.305Z,965.36
2016-12-24T05:48:59.322Z,965.36
2016-12-24T05:49:59.337Z,965.42
2016-12-24T05:50:59.352Z,965.38
2016-12-24T05:51:59.368Z,965.32
2016-12-24T05:52:59.383Z,965.34
2016-12-24T05:53:59.399Z,965.35
2016-12-24T05:54:59.415Z,965.38
2016-12-24T05:55:59.431Z,965.36
2016-12-24T05:56:59.446Z,965.38
2016-12-24T05:57:59.461Z,965.36
2016-12-24T05:58:59.480Z,965.23
2016-12-24T05:59:59.493Z,965.25
2016-12-24T06:00:59.507Z,965.23
2016-12-24T06:01:59.524Z,965.22
2016-12-24T06:02:59.539Z,965.17
2016-12-24T06:03:59.555Z,965.14
2016-12-24T06:04:59.571Z,965.13
2016-12-24T06:05:59.586Z,965.16
2016-12-24T06:06:59.602Z,965.15
2016-12-24T06:07:59.616Z,965.13
2016-12-24T06:08:59.632Z,965.09
2016-12-24T06:09:59.648Z,965.14
2016-12-24T06:10:59.664Z,965.17
2016-12-24T06:11:59.678Z,965.12
2016-12-24T06:12:59.694Z,965.11
2016-12-24T06:13:59.709Z,965.09
2016-12-24T06:14:59.725Z,965.01
2016-12-24T06:15:59.740Z,965.03
2016-12-24T06:16:59.756Z,965.01
2016-12-24T06:17:59.772Z,965.07
2016-12-24T06:18:59.786Z,965.11
2016-12-24T06:19:59.802Z,965.12
2016-12-24T06:20:59.824Z,965.16
2016-12-24T06:21:59.833Z,965.17
2016-12-24T06:22:59.847Z,965.15
2016-12-24T06:23:59.864Z,965.14
2016-12-24T06:24:59.878Z,965.1
2016-12-24T06:25:59.893Z,965.11
2016-12-24T06:26:59.909Z,965.03
2016-12-24T06:27:59.924Z,965
2016-12-24T06:28:59.939Z,965.01
2016-12-24T06:29:59.954Z,965.03
2016-12-24T06:30:59.970Z,965.06
2016-12-24T06:31:59.984Z,965.07
2016-12-24T06:33:00.000Z,965.05
2016-12-24T06:34:00.015Z,965.12
2016-12-24T06:35:00.082Z,965.11
2016-12-24T06:36:00.046Z,965.14
2016-12-24T06:37:00.061Z,965.16
2016-12-24T06:38:00.075Z,965.17
2016-12-24T06:39:00.090Z,965.21
2016-12-24T06:40:00.105Z,965.23
2016-12-24T06:41:00.120Z,965.21
2016-12-24T06:42:00.135Z,965.24
2016-12-24T06:43:00.167Z,965.24
2016-12-24T06:44:00.166Z,965.3
2016-12-24T06:45:00.180Z,965.32
2016-12-24T06:46:00.195Z,965.35
2016-12-24T06:47:00.210Z,965.29
2016-12-24T06:48:00.224Z,965.32
2016-12-24T06:49:00.239Z,965.33
2016-12-24T06:50:00.255Z,965.31
2016-12-24T06:51:00.276Z,965.32
2016-12-24T06:52:00.284Z,965.26
2016-12-24T06:53:00.299Z,965.34
2016-12-24T06:54:00.314Z,965.3
2016-12-24T06:55:00.328Z,965.31
2016-12-24T06:56:00.343Z,965.27
2016-12-24T06:57:00.359Z,965.29
2016-12-24T06:58:00.391Z,965.26
2016-12-24T06:59:00.388Z,965.27
2016-12-24T07:00:00.403Z,965.29
2016-12-24T07:01:00.468Z,965.3
2016-12-24T07:02:00.432Z,965.38
2016-12-24T07:03:00.447Z,965.35
2016-12-24T07:04:00.462Z,965.35
2016-12-24T07:05:00.478Z,965.36
2016-12-24T07:06:00.493Z,965.32
2016-12-24T07:07:00.507Z,965.31
2016-12-24T07:08:00.523Z,965.34
2016-12-24T07:09:00.537Z,965.3
2016-12-24T07:10:00.551Z,965.28
2016-12-24T07:11:00.567Z,965.31
2016-12-24T07:12:00.583Z,965.3
2016-12-24T07:13:00.597Z,965.26
2016-12-24T07:14:00.610Z,965.16
2016-12-24T07:15:00.626Z,965.23
2016-12-24T07:16:00.641Z,965.19
2016-12-24T07:17:00.658Z,965.17
2016-12-24T07:18:00.671Z,965.19
2016-12-24T07:19:00.686Z,965.18
2016-12-24T07:20:00.701Z,965.2
2016-12-24T07:21:00.715Z,965.23
2016-12-24T07:22:00.760Z,965.25
2016-12-24T07:23:00.746Z,965.27
2016-12-24T07:24:00.760Z,965.24
2016-12-24T07:25:00.775Z,965.24
2016-12-24T07:26:00.790Z,965.25
2016-12-24T07:27:00.806Z,965.23
2016-12-24T07:28:00.820Z,965.23
2016-12-24T07:29:00.836Z,965.26
2016-12-24T07:30:00.850Z,965.26
2016-12-24T07:31:00.866Z,965.24
2016-12-24T07:32:00.880Z,965.23
2016-12-24T07:33:00.896Z,965.23
2016-12-24T07:34:00.929Z,965.24
2016-12-24T07:35:00.927Z,965.19
2016-12-24T07:36:00.940Z,965.17
2016-12-24T07:37:00.956Z,965.13
2016-12-24T07:38:00.970Z,965.13
2016-12-24T07:39:00.985Z,965.11
2016-12-24T07:40:01.001Z,965.13
2016-12-24T07:41:01.065Z,965.14
2016-12-24T07:42:01.031Z,965.17
2016-12-24T07:43:01.045Z,965.24
2016-12-24T07:44:01.060Z,965.28
2016-12-24T07:45:01.075Z,965.24
2016-12-24T07:46:01.091Z,965.24
2016-12-24T07:47:01.105Z,965.23
2016-12-24T07:48:01.121Z,965.28
2016-12-24T07:49:01.153Z,965.26
2016-12-24T07:50:01.150Z,965.27
2016-12-24T07:51:01.165Z,965.27
2016-12-24T07:52:01.181Z,965.22
2016-12-24T07:53:01.196Z,965.21
2016-12-24T07:54:01.209Z,965.21
2016-12-24T07:55:01.229Z,965.21
2016-12-24T07:56:01.241Z,965.21
2016-12-24T07:57:01.256Z,965.23
2016-12-24T07:58:01.270Z,965.21
2016-12-24T07:59:01.286Z,965.16
2016-12-24T08:00:01.301Z,965.2
2016-12-24T08:01:01.315Z,965.14
2016-12-24T08:02:01.330Z,965.16
2016-12-24T08:03:01.344Z,965.15
2016-12-24T08:04:01.361Z,965.14
2016-12-24T08:05:01.375Z,965.16
2016-12-24T08:06:01.391Z,965.17
2016-12-24T08:07:01.405Z,965.16
2016-12-24T08:08:01.421Z,965.15
2016-12-24T08:09:01.435Z,965.11
2016-12-24T08:10:01.452Z,965.12
2016-12-24T08:11:01.467Z,965.07
2016-12-24T08:12:01.481Z,965.08
2016-12-24T08:13:01.496Z,965.12
2016-12-24T08:14:01.511Z,965.1
2016-12-24T08:15:01.527Z,965.1
2016-12-24T08:16:01.541Z,965.14
2016-12-24T08:17:01.557Z,965.12
2016-12-24T08:18:01.581Z,965.12
2016-12-24T08:19:01.587Z,965.11
2016-12-24T08:20:01.602Z,965.08
2016-12-24T08:21:01.617Z,965.14
2016-12-24T08:22:01.633Z,965.12
2016-12-24T08:23:01.647Z,965.09
2016-12-24T08:24:01.664Z,965.07
2016-12-24T08:25:01.691Z,965.08
2016-12-24T08:26:01.694Z,965.07
2016-12-24T08:27:01.708Z,965.09
2016-12-24T08:28:01.724Z,965.03
2016-12-24T08:29:01.740Z,965.07
2016-12-24T08:30:01.755Z,965.03
2016-12-24T08:31:01.770Z,965.07
2016-12-24T08:32:01.785Z,965.04
2016-12-24T08:33:01.802Z,965.04
2016-12-24T08:34:01.816Z,965.03
2016-12-24T08:35:01.830Z,965.09
2016-12-24T08:36:01.846Z,965.08
2016-12-24T08:37:01.862Z,965.12
2016-12-24T08:38:01.876Z,965.13
2016-12-24T08:39:01.892Z,965.09
2016-12-24T08:40:01.914Z,965.09
2016-12-24T08:41:01.923Z,965.04
2016-12-24T08:42:01.938Z,965.05
2016-12-24T08:43:01.953Z,965.08
2016-12-24T08:44:01.968Z,965.16
2016-12-24T08:45:01.983Z,965.19
2016-12-24T08:46:02.000Z,965.18
2016-12-24T08:47:02.014Z,965.2
2016-12-24T08:48:02.030Z,965.16
2016-12-24T08:49:02.046Z,965.15
2016-12-24T08:50:02.061Z,965.2
2016-12-24T08:51:02.076Z,965.21
2016-12-24T08:52:02.092Z,965.19
2016-12-24T08:53:02.106Z,965.22
2016-12-24T08:54:02.122Z,965.16
2016-12-24T08:55:02.138Z,965.15
2016-12-24T08:56:02.152Z,965.13
2016-12-24T08:57:02.168Z,965.15
2016-12-24T08:58:02.184Z,965.13
2016-12-24T08:59:02.200Z,965.15
2016-12-24T09:00:02.216Z,965.17
2016-12-24T09:01:02.231Z,965.18
2016-12-24T09:02:02.263Z,965.18
2016-12-24T09:03:02.262Z,965.13
2016-12-24T09:04:02.278Z,965.16
2016-12-24T09:05:02.295Z,965.16
2016-12-24T09:06:02.311Z,965.13
2016-12-24T09:07:02.325Z,965.12
2016-12-24T09:08:02.342Z,965.16
2016-12-24T09:09:02.356Z,965.18
2016-12-24T09:10:02.372Z,965.2
2016-12-24T09:11:02.389Z,965.18
2016-12-24T09:12:02.404Z,965.18
2016-12-24T09:13:02.420Z,965.21
2016-12-24T09:14:02.435Z,965.21
2016-12-24T09:15:02.450Z,965.23
2016-12-24T09:16:02.468Z,965.27
2016-12-24T09:17:02.483Z,965.26
2016-12-24T09:18:02.497Z,965.26
2016-12-24T09:19:02.513Z,965.23
2016-12-24T09:20:02.529Z,965.24
2016-12-24T09:21:02.546Z,965.29
2016-12-24T09:22:02.561Z,965.22
2016-12-24T09:23:02.578Z,965.33
2016-12-24T09:24:02.610Z,965.27
2016-12-24T09:25:02.609Z,965.28
2016-12-24T09:26:02.625Z,965.35
2016-12-24T09:27:02.642Z,965.34
2016-12-24T09:28:02.659Z,965.31
2016-12-24T09:29:02.674Z,965.38
2016-12-24T09:30:02.690Z,965.34
2016-12-24T09:31:02.808Z,965.36
2016-12-24T09:32:02.724Z,965.39
2016-12-24T09:33:02.740Z,965.39
2016-12-24T09:34:02.755Z,965.41
2016-12-24T09:35:02.773Z,965.32
2016-12-24T09:36:02.788Z,965.4
2016-12-24T09:37:02.806Z,965.29
2016-12-24T09:38:02.824Z,965.28
2016-12-24T09:39:02.840Z,965.24
2016-12-24T09:40:02.856Z,965.3
2016-12-24T09:41:02.923Z,965.23
2016-12-24T09:42:02.892Z,965.26
2016-12-24T09:43:02.907Z,965.2
2016-12-24T09:44:02.924Z,965.3
2016-12-24T09:45:02.941Z,965.21
2016-12-24T09:46:03.009Z,965.2
2016-12-24T09:47:02.973Z,965.21
2016-12-24T09:48:02.993Z,965.19
2016-12-24T09:49:03.008Z,965.13
2016-12-24T09:50:03.025Z,965.14
2016-12-24T09:51:03.091Z,965.1
2016-12-24T09:52:03.057Z,965.08
2016-12-24T09:53:03.084Z,965.06
2016-12-24T09:54:03.094Z,965.1
2016-12-24T09:55:03.112Z,965.1
2016-12-24T09:56:03.128Z,965.04
2016-12-24T09:57:03.144Z,965.09
2016-12-24T09:58:03.161Z,965.06
2016-12-24T09:59:03.178Z,965.01
2016-12-24T10:00:03.198Z,965.01
2016-12-24T10:01:03.265Z,965.02
2016-12-24T10:02:03.229Z,964.94
2016-12-24T10:03:03.248Z,964.99
2016-12-24T10:04:03.266Z,964.98
2016-12-24T10:05:03.283Z,964.93
2016-12-24T10:06:03.400Z,964.88
2016-12-24T10:07:03.316Z,964.82
2016-12-24T10:08:03.332Z,964.79
2016-12-24T10:09:03.350Z,964.84
2016-12-24T10:10:03.370Z,964.78
2016-12-24T10:11:03.386Z,964.78
2016-12-24T10:12:03.403Z,964.84
2016-12-24T10:13:03.421Z,964.85
2016-12-24T10:14:03.438Z,964.79
2016-12-24T10:15:03.455Z,964.74
2016-12-24T10:16:03.473Z,964.69
2016-12-24T10:17:03.489Z,964.62
2016-12-24T10:18:03.507Z,964.65
2016-12-24T10:19:03.527Z,964.63
2016-12-24T10:20:03.542Z,964.59
2016-12-24T10:21:03.609Z,964.53
2016-12-24T10:22:03.576Z,964.47
2016-12-24T10:23:03.593Z,964.59
2016-12-24T10:24:03.610Z,964.54
2016-12-24T10:25:03.628Z,964.56
2016-12-24T10:26:03.695Z,964.6
2016-12-24T10:27:03.662Z,964.46
2016-12-24T10:28:03.680Z,964.48
2016-12-24T10:29:03.697Z,964.48
2016-12-24T10:30:03.718Z,964.43
2016-12-24T10:31:03.782Z,964.51
2016-12-24T10:32:03.748Z,964.45
2016-12-24T10:34:03.784Z,964.37
2016-12-24T10:35:03.800Z,964.35
2016-12-24T10:36:03.818Z,964.35
2016-12-24T10:37:03.836Z,964.36
2016-12-24T10:38:03.874Z,964.26
2016-12-24T10:39:03.871Z,964.24
2016-12-24T10:40:03.889Z,964.22
2016-12-24T10:41:03.906Z,964.22
2016-12-24T10:42:03.922Z,964.2
2016-12-24T10:43:03.941Z,964.13
2016-12-24T10:44:03.958Z,964.19
2016-12-24T10:45:03.998Z,964.15
2016-12-24T10:46:04.143Z,964.12
2016-12-24T10:47:04.012Z,964.1
2016-12-24T10:48:04.028Z,964.15
2016-12-24T10:49:04.045Z,964.1
2016-12-24T10:50:04.067Z,964.05
2016-12-24T10:51:04.082Z,963.98
2016-12-24T10:52:04.098Z,963.95
2016-12-24T10:53:04.117Z,963.93
2016-12-24T10:54:04.132Z,963.9
2016-12-24T10:55:04.155Z,963.97
2016-12-24T10:56:04.171Z,963.91
2016-12-24T10:57:04.186Z,963.87
2016-12-24T10:58:04.203Z,963.86
2016-12-24T10:59:04.222Z,963.92
2016-12-24T11:00:04.239Z,963.92
2016-12-24T11:01:04.256Z,963.87
2016-12-24T11:02:04.274Z,963.83
2016-12-24T11:03:04.291Z,963.88
2016-12-24T11:04:04.308Z,963.93
2016-12-24T11:05:04.327Z,963.95
2016-12-24T11:06:04.344Z,963.97
2016-12-24T11:07:04.363Z,964.01
2016-12-24T11:08:04.379Z,963.97
2016-12-24T11:09:04.397Z,963.98
2016-12-24T11:10:04.415Z,963.91
2016-12-24T11:11:04.433Z,963.89
2016-12-24T11:12:04.451Z,963.95
2016-12-24T11:13:04.467Z,963.93
2016-12-24T11:14:04.486Z,963.93
2016-12-24T11:15:04.505Z,963.89
2016-12-24T11:16:04.521Z,963.91
2016-12-24T11:17:04.539Z,963.9
2016-12-24T11:18:04.557Z,963.91
2016-12-24T11:19:04.575Z,963.85
2016-12-24T11:20:04.593Z,963.81
2016-12-24T11:21:04.611Z,963.82
2016-12-24T11:22:04.630Z,963.74
2016-12-24T11:23:04.646Z,963.79
2016-12-24T11:24:04.664Z,963.85
2016-12-24T11:25:04.683Z,963.8
2016-12-24T11:26:04.700Z,963.82
2016-12-24T11:27:04.717Z,963.82
2016-12-24T11:28:04.736Z,963.92
2016-12-24T11:29:04.754Z,963.97
2016-12-24T11:30:04.788Z,963.92
2016-12-24T11:31:04.789Z,963.9
2016-12-24T11:32:04.806Z,963.96
2016-12-24T11:33:04.825Z,963.92
2016-12-24T11:34:04.842Z,963.97
2016-12-24T11:35:04.861Z,963.96
2016-12-24T11:36:04.879Z,963.96
2016-12-24T11:37:04.913Z,963.94
2016-12-24T11:38:04.915Z,963.85
2016-12-24T11:39:04.932Z,963.76
2016-12-24T11:40:04.953Z,963.82
2016-12-24T11:41:04.969Z,963.93
2016-12-24T11:42:04.986Z,963.96
2016-12-24T11:43:05.007Z,963.7
2016-12-24T11:44:05.023Z,963.7
2016-12-24T11:45:05.041Z,963.8
2016-12-24T11:46:05.059Z,963.78
2016-12-24T11:47:05.077Z,963.74
2016-12-24T11:48:05.107Z,963.69
2016-12-24T11:49:05.143Z,963.71
2016-12-24T11:50:05.133Z,963.76
2016-12-24T11:51:05.150Z,963.71
2016-12-24T11:52:05.167Z,963.7
2016-12-24T11:53:05.186Z,963.71
2016-12-24T11:54:05.204Z,963.74
2016-12-24T11:55:05.222Z,963.73
2016-12-24T11:56:05.240Z,963.62
2016-12-24T11:57:05.260Z,963.62
2016-12-24T11:58:05.276Z,963.62
2016-12-24T11:59:05.294Z,963.6
2016-12-24T12:00:05.312Z,963.61
2016-12-24T12:01:05.331Z,963.62
2016-12-24T12:02:05.349Z,963.59
2016-12-24T12:03:05.367Z,963.7
2016-12-24T12:04:05.384Z,963.66
2016-12-24T12:05:05.403Z,963.59
2016-12-24T12:06:05.420Z,963.6
2016-12-24T12:07:05.440Z,963.58
2016-12-24T12:08:05.457Z,963.5
2016-12-24T12:09:05.476Z,963.48
2016-12-24T12:10:05.493Z,963.49
2016-12-24T12:11:05.511Z,963.61
2016-12-24T12:12:05.530Z,963.51
2016-12-24T12:13:05.548Z,963.64
2016-12-24T12:14:05.566Z,963.54
2016-12-24T12:15:05.584Z,963.52
2016-12-24T12:16:05.603Z,963.5
2016-12-24T12:17:05.620Z,963.48
2016-12-24T12:18:05.638Z,963.53
2016-12-24T12:19:05.656Z,963.46
2016-12-24T12:20:05.675Z,963.4
2016-12-24T12:21:05.692Z,963.42
2016-12-24T12:22:05.710Z,963.36
2016-12-24T12:23:05.730Z,963.39
2016-12-24T12:24:05.747Z,963.32
2016-12-24T12:25:05.766Z,963.38
2016-12-24T12:26:05.783Z,963.38
2016-12-24T12:27:05.802Z,963.27
2016-12-24T12:28:05.819Z,963.33
2016-12-24T12:29:05.840Z,963.25
2016-12-24T12:30:05.856Z,963.26
2016-12-24T12:31:05.874Z,963.18
2016-12-24T12:32:05.892Z,963.22